sensor_id;sensor_type;location;lat;lon;timestamp;pressure;altitude;pressure_sealevel;temperature;humidity
3844;BME280;1937;51.444;6.484;2023-04-01T00:00:22;68414.63;;;10.05;100.00
3844;BME280;1937;51.444;6.484;2023-04-01T00:02:48;68371.75;;;9.97;100.00
3844;BME280;1937;51.444;6.484;2023-04-01T00:05:15;68395.88;;;10.00;100.00
3844;BME280;1937;51.444;6.484;2023-04-01T00:07:42;68424.97;;;9.99;100.00
3844;BME280;1937;51.444;6.484;2023-04-01T00:10:11;68407.75;;;9.97;100.00
3844;BME280;1937;51.444;6.484;2023-04-01T00:12:39;68391.56;;;9.92;100.00
3844;BME280;1937;51.444;6.484;2023-04-01T00:15:08;68399.81;;;9.99;100.00
3844;BME280;1937;51.444;6.484;2023-04-01T00:17:35;68413.28;;;10.00;100.00
3844;BME280;1937;51.444;6.484;2023-04-01T00:20:02;68423.63;;;9.93;100.00
3844;BME280;1937;51.444;6.484;2023-04-01T00:22:29;68428.47;;;10.02;100.00
3844;BME280;1937;51.444;6.484;2023-04-01T00:24:55;68380.09;;;9.91;100.00
3844;BME280;1937;51.444;6.484;2023-04-01T00:27:24;68390.22;;;9.86;100.00
3844;BME280;1937;51.444;6.484;2023-04-01T00:29:51;68437.88;;;9.92;100.00
3844;BME280;1937;51.444;6.484;2023-04-01T00:32:17;68384.78;;;9.77;100.00
3844;BME280;1937;51.444;6.484;2023-04-01T00:34:44;68359.81;;;9.82;100.00
3844;BME280;1937;51.444;6.484;2023-04-01T00:37:11;68416.41;;;9.76;100.00
3844;BME280;1937;51.444;6.484;2023-04-01T00:39:38;68455.91;;;9.85;100.00
3844;BME280;1937;51.444;6.484;2023-04-01T00:42:05;68451.91;;;9.93;100.00
3844;BME280;1937;51.444;6.484;2023-04-01T00:44:34;68438.66;;;9.91;100.00
3844;BME280;1937;51.444;6.484;2023-04-01T00:47:00;68425.84;;;9.84;100.00
3844;BME280;1937;51.444;6.484;2023-04-01T00:49:30;68411.06;;;9.78;100.00
3844;BME280;1937;51.444;6.484;2023-04-01T00:51:59;68440.91;;;9.81;100.00
3844;BME280;1937;51.444;6.484;2023-04-01T00:54:27;68503.13;;;9.95;100.00
3844;BME280;1937;51.444;6.484;2023-04-01T00:56:57;68486.53;;;9.94;100.00
3844;BME280;1937;51.444;6.484;2023-04-01T00:59:27;68451.78;;;9.82;100.00
3844;BME280;1937;51.444;6.484;2023-04-01T01:01:57;68459.09;;;9.79;100.00
3844;BME280;1937;51.444;6.484;2023-04-01T01:04:25;68482.41;;;9.84;100.00
3844;BME280;1937;51.444;6.484;2023-04-01T01:06:58;68485.41;;;9.80;100.00
3844;BME280;1937;51.444;6.484;2023-04-01T01:09:37;68486.81;;;9.79;100.00
3844;BME280;1937;51.444;6.484;2023-04-01T01:12:10;68482.00;;;9.88;100.00
3844;BME280;1937;51.444;6.484;2023-04-01T01:14:48;68580.34;;;9.82;100.00
3844;BME280;1937;51.444;6.484;2023-04-01T01:17:26;68470.91;;;9.90;100.00
3844;BME280;1937;51.444;6.484;2023-04-01T01:20:10;68508.31;;;9.89;100.00
3844;BME280;1937;51.444;6.484;2023-04-01T01:22:54;68496.84;;;9.88;100.00
3844;BME280;1937;51.444;6.484;2023-04-01T01:25:30;68591.00;;;9.84;100.00
3844;BME280;1937;51.444;6.484;2023-04-01T01:28:13;68482.19;;;9.93;100.00
3844;BME280;1937;51.444;6.484;2023-04-01T01:30:47;68436.59;;;9.73;100.00
3844;BME280;1937;51.444;6.484;2023-04-01T01:33:24;68477.09;;;9.79;100.00
3844;BME280;1937;51.444;6.484;2023-04-01T01:35:57;68457.94;;;9.78;100.00
3844;BME280;1937;51.444;6.484;2023-04-01T01:38:27;68504.00;;;9.80;100.00
3844;BME280;1937;51.444;6.484;2023-04-01T01:40:56;68433.44;;;9.73;100.00
3844;BME280;1937;51.444;6.484;2023-04-01T01:43:25;68580.38;;;9.75;100.00
3844;BME280;1937;51.444;6.484;2023-04-01T01:45:55;68431.69;;;9.71;100.00
3844;BME280;1937;51.444;6.484;2023-04-01T01:48:24;68500.41;;;9.84;100.00
3844;BME280;1937;51.444;6.484;2023-04-01T01:50:53;68485.97;;;9.87;100.00
3844;BME280;1937;51.444;6.484;2023-04-01T01:53:21;68471.00;;;9.76;100.00
3844;BME280;1937;51.444;6.484;2023-04-01T01:55:48;68473.91;;;9.85;100.00
3844;BME280;1937;51.444;6.484;2023-04-01T01:58:18;68484.03;;;9.81;100.00
3844;BME280;1937;51.444;6.484;2023-04-01T02:00:50;68435.22;;;9.74;100.00
3844;BME280;1937;51.444;6.484;2023-04-01T02:03:18;68455.97;;;9.72;100.00
3844;BME280;1937;51.444;6.484;2023-04-01T02:05:47;68482.69;;;9.75;100.00
3844;BME280;1937;51.444;6.484;2023-04-01T02:08:19;68501.09;;;9.71;100.00
3844;BME280;1937;51.444;6.484;2023-04-01T02:10:55;68483.91;;;9.70;100.00
3844;BME280;1937;51.444;6.484;2023-04-01T02:13:27;68561.38;;;9.79;100.00
3844;BME280;1937;51.444;6.484;2023-04-01T02:15:59;68463.31;;;9.70;100.00
3844;BME280;1937;51.444;6.484;2023-04-01T02:18:28;68512.75;;;9.77;100.00
3844;BME280;1937;51.444;6.484;2023-04-01T02:20:57;68516.91;;;9.74;100.00
3844;BME280;1937;51.444;6.484;2023-04-01T02:23:26;68528.75;;;9.77;100.00
3844;BME280;1937;51.444;6.484;2023-04-01T02:25:55;68519.63;;;9.78;100.00
3844;BME280;1937;51.444;6.484;2023-04-01T02:28:23;68532.13;;;9.76;100.00
3844;BME280;1937;51.444;6.484;2023-04-01T02:30:51;68525.75;;;9.81;100.00
3844;BME280;1937;51.444;6.484;2023-04-01T02:33:19;68517.06;;;9.78;100.00
3844;BME280;1937;51.444;6.484;2023-04-01T02:35:47;68554.84;;;9.80;100.00
3844;BME280;1937;51.444;6.484;2023-04-01T02:38:13;68584.50;;;9.79;100.00
3844;BME280;1937;51.444;6.484;2023-04-01T02:40:46;68580.94;;;9.82;100.00
3844;BME280;1937;51.444;6.484;2023-04-01T02:43:15;68595.78;;;9.82;100.00
3844;BME280;1937;51.444;6.484;2023-04-01T02:45:42;68535.44;;;9.81;100.00
3844;BME280;1937;51.444;6.484;2023-04-01T02:48:09;68566.13;;;9.83;100.00
3844;BME280;1937;51.444;6.484;2023-04-01T02:50:35;68578.75;;;9.85;100.00
3844;BME280;1937;51.444;6.484;2023-04-01T02:53:02;68616.50;;;9.93;100.00
3844;BME280;1937;51.444;6.484;2023-04-01T02:55:31;68578.53;;;9.87;100.00
3844;BME280;1937;51.444;6.484;2023-04-01T02:57:58;68581.13;;;9.87;100.00
3844;BME280;1937;51.444;6.484;2023-04-01T03:00:26;68563.31;;;9.85;100.00
3844;BME280;1937;51.444;6.484;2023-04-01T03:02:53;68598.56;;;9.80;100.00
3844;BME280;1937;51.444;6.484;2023-04-01T03:05:22;68574.63;;;9.81;100.00
3844;BME280;1937;51.444;6.484;2023-04-01T03:07:48;68670.34;;;9.89;100.00
3844;BME280;1937;51.444;6.484;2023-04-01T03:10:15;68598.53;;;9.86;100.00
3844;BME280;1937;51.444;6.484;2023-04-01T03:12:42;68626.41;;;9.84;100.00
3844;BME280;1937;51.444;6.484;2023-04-01T03:15:10;68621.09;;;9.79;100.00
3844;BME280;1937;51.444;6.484;2023-04-01T03:17:39;68641.28;;;9.83;100.00
3844;BME280;1937;51.444;6.484;2023-04-01T03:20:07;68687.94;;;9.93;100.00
3844;BME280;1937;51.444;6.484;2023-04-01T03:22:36;68626.63;;;9.82;100.00
3844;BME280;1937;51.444;6.484;2023-04-01T03:25:03;68638.91;;;9.81;100.00
3844;BME280;1937;51.444;6.484;2023-04-01T03:27:30;68672.09;;;9.90;100.00
3844;BME280;1937;51.444;6.484;2023-04-01T03:29:57;68720.56;;;9.94;100.00
3844;BME280;1937;51.444;6.484;2023-04-01T03:32:23;68673.31;;;9.84;100.00
3844;BME280;1937;51.444;6.484;2023-04-01T03:34:51;68567.13;;;9.73;100.00
3844;BME280;1937;51.444;6.484;2023-04-01T03:37:18;68655.13;;;9.80;100.00
3844;BME280;1937;51.444;6.484;2023-04-01T03:39:45;68648.00;;;9.80;100.00
3844;BME280;1937;51.444;6.484;2023-04-01T03:42:11;68684.00;;;9.87;100.00
3844;BME280;1937;51.444;6.484;2023-04-01T03:44:38;68674.13;;;9.83;100.00
3844;BME280;1937;51.444;6.484;2023-04-01T03:47:05;68681.84;;;9.76;100.00
3844;BME280;1937;51.444;6.484;2023-04-01T03:49:32;68664.03;;;9.81;100.00
3844;BME280;1937;51.444;6.484;2023-04-01T03:52:00;68658.31;;;9.74;100.00
3844;BME280;1937;51.444;6.484;2023-04-01T03:54:27;68652.75;;;9.78;100.00
3844;BME280;1937;51.444;6.484;2023-04-01T03:56:54;68680.44;;;9.84;100.00
3844;BME280;1937;51.444;6.484;2023-04-01T03:59:23;68692.88;;;9.88;100.00
3844;BME280;1937;51.444;6.484;2023-04-01T04:01:49;68697.63;;;9.85;100.00
3844;BME280;1937;51.444;6.484;2023-04-01T04:04:16;68689.31;;;9.85;100.00
3844;BME280;1937;51.444;6.484;2023-04-01T04:06:43;68723.75;;;9.88;100.00
3844;BME280;1937;51.444;6.484;2023-04-01T04:09:10;68735.19;;;9.96;100.00
3844;BME280;1937;51.444;6.484;2023-04-01T04:11:37;68702.19;;;9.85;100.00
3844;BME280;1937;51.444;6.484;2023-04-01T04:14:04;68721.75;;;9.95;100.00
3844;BME280;1937;51.444;6.484;2023-04-01T04:16:30;68709.69;;;9.94;100.00
3844;BME280;1937;51.444;6.484;2023-04-01T04:18:57;68670.72;;;9.91;100.00
3844;BME280;1937;51.444;6.484;2023-04-01T04:21:24;68699.03;;;9.78;100.00
3844;BME280;1937;51.444;6.484;2023-04-01T04:23:50;68689.53;;;9.83;100.00
3844;BME280;1937;51.444;6.484;2023-04-01T04:26:18;68581.41;;;9.72;100.00
3844;BME280;1937;51.444;6.484;2023-04-01T04:28:45;68740.94;;;9.90;100.00
3844;BME280;1937;51.444;6.484;2023-04-01T04:31:12;68738.97;;;9.97;100.00
3844;BME280;1937;51.444;6.484;2023-04-01T04:33:44;68735.00;;;9.91;100.00
3844;BME280;1937;51.444;6.484;2023-04-01T04:36:10;68685.19;;;9.81;100.00
3844;BME280;1937;51.444;6.484;2023-04-01T04:38:37;68698.63;;;9.89;100.00
3844;BME280;1937;51.444;6.484;2023-04-01T04:41:08;68743.72;;;9.94;100.00
3844;BME280;1937;51.444;6.484;2023-04-01T04:43:37;68716.03;;;9.88;100.00
3844;BME280;1937;51.444;6.484;2023-04-01T04:46:04;68715.03;;;9.85;100.00
3844;BME280;1937;51.444;6.484;2023-04-01T04:48:31;68683.41;;;9.80;100.00
3844;BME280;1937;51.444;6.484;2023-04-01T04:50:58;68691.31;;;9.78;100.00
3844;BME280;1937;51.444;6.484;2023-04-01T04:53:24;68772.03;;;9.88;100.00
3844;BME280;1937;51.444;6.484;2023-04-01T04:55:52;68746.31;;;9.88;100.00
3844;BME280;1937;51.444;6.484;2023-04-01T04:58:18;68777.75;;;9.88;100.00
3844;BME280;1937;51.444;6.484;2023-04-01T05:00:47;68727.31;;;9.84;100.00
3844;BME280;1937;51.444;6.484;2023-04-01T05:03:14;68741.16;;;9.81;100.00
3844;BME280;1937;51.444;6.484;2023-04-01T05:05:48;68711.72;;;9.73;100.00
3844;BME280;1937;51.444;6.484;2023-04-01T05:08:15;68788.25;;;9.93;100.00
3844;BME280;1937;51.444;6.484;2023-04-01T05:10:41;68792.19;;;9.92;100.00
3844;BME280;1937;51.444;6.484;2023-04-01T05:13:08;68767.47;;;9.88;100.00
3844;BME280;1937;51.444;6.484;2023-04-01T05:15:37;68752.66;;;9.82;100.00
3844;BME280;1937;51.444;6.484;2023-04-01T05:18:05;68736.22;;;9.79;100.00
3844;BME280;1937;51.444;6.484;2023-04-01T05:20:31;68721.41;;;9.73;100.00
3844;BME280;1937;51.444;6.484;2023-04-01T05:22:59;68783.88;;;9.91;100.00
3844;BME280;1937;51.444;6.484;2023-04-01T05:25:26;68748.88;;;9.81;100.00
3844;BME280;1937;51.444;6.484;2023-04-01T05:27:52;68756.59;;;9.81;100.00
3844;BME280;1937;51.444;6.484;2023-04-01T05:30:19;68775.97;;;9.86;100.00
3844;BME280;1937;51.444;6.484;2023-04-01T05:32:46;68764.91;;;9.88;100.00
3844;BME280;1937;51.444;6.484;2023-04-01T05:35:14;68761.34;;;9.85;100.00
3844;BME280;1937;51.444;6.484;2023-04-01T05:37:41;68778.75;;;9.91;100.00
3844;BME280;1937;51.444;6.484;2023-04-01T05:40:08;68736.44;;;9.70;100.00
3844;BME280;1937;51.444;6.484;2023-04-01T05:42:35;68750.88;;;9.74;100.00
3844;BME280;1937;51.444;6.484;2023-04-01T05:45:02;68773.22;;;9.82;100.00
3844;BME280;1937;51.444;6.484;2023-04-01T05:47:28;68774.19;;;9.85;100.00
3844;BME280;1937;51.444;6.484;2023-04-01T05:49:55;68767.91;;;9.71;100.00
3844;BME280;1937;51.444;6.484;2023-04-01T05:52:23;68750.88;;;9.80;100.00
3844;BME280;1937;51.444;6.484;2023-04-01T05:54:50;68895.06;;;9.72;100.00
3844;BME280;1937;51.444;6.484;2023-04-01T05:57:18;68720.84;;;9.66;100.00
3844;BME280;1937;51.444;6.484;2023-04-01T05:59:45;68835.72;;;9.80;100.00
3844;BME280;1937;51.444;6.484;2023-04-01T06:02:13;68780.72;;;9.84;100.00
3844;BME280;1937;51.444;6.484;2023-04-01T06:04:43;68764.72;;;9.64;100.00
3844;BME280;1937;51.444;6.484;2023-04-01T06:07:12;68757.81;;;9.69;100.00
3844;BME280;1937;51.444;6.484;2023-04-01T06:09:42;68747.09;;;9.73;100.00
3844;BME280;1937;51.444;6.484;2023-04-01T06:12:22;68746.53;;;9.66;100.00
3844;BME280;1937;51.444;6.484;2023-04-01T06:15:03;68725.16;;;9.74;100.00
3844;BME280;1937;51.444;6.484;2023-04-01T06:17:43;68832.19;;;9.77;100.00
3844;BME280;1937;51.444;6.484;2023-04-01T06:20:20;68760.97;;;9.76;100.00
3844;BME280;1937;51.444;6.484;2023-04-01T06:23:05;68788.25;;;9.73;100.00
3844;BME280;1937;51.444;6.484;2023-04-01T06:25:44;68821.09;;;9.79;100.00
3844;BME280;1937;51.444;6.484;2023-04-01T06:28:58;68790.81;;;9.73;100.00
3844;BME280;1937;51.444;6.484;2023-04-01T06:31:39;68799.72;;;9.74;100.00
3844;BME280;1937;51.444;6.484;2023-04-01T06:34:56;68875.88;;;9.84;100.00
3844;BME280;1937;51.444;6.484;2023-04-01T06:37:50;68936.22;;;9.72;100.00
3844;BME280;1937;51.444;6.484;2023-04-01T06:40:45;68817.72;;;9.74;100.00
3844;BME280;1937;51.444;6.484;2023-04-01T06:43:21;68821.47;;;9.75;100.00
3844;BME280;1937;51.444;6.484;2023-04-01T06:45:56;68849.38;;;9.66;100.00
3844;BME280;1937;51.444;6.484;2023-04-01T06:48:41;68795.41;;;9.66;100.00
3844;BME280;1937;51.444;6.484;2023-04-01T06:51:21;68812.19;;;9.78;100.00
3844;BME280;1937;51.444;6.484;2023-04-01T06:53:56;68876.09;;;9.82;100.00
3844;BME280;1937;51.444;6.484;2023-04-01T06:56:30;68787.66;;;9.85;100.00
3844;BME280;1937;51.444;6.484;2023-04-01T06:59:02;68768.31;;;9.54;100.00
3844;BME280;1937;51.444;6.484;2023-04-01T07:01:35;68958.53;;;9.67;100.00
3844;BME280;1937;51.444;6.484;2023-04-01T07:04:06;68830.97;;;9.76;100.00
3844;BME280;1937;51.444;6.484;2023-04-01T07:06:38;68962.31;;;9.74;100.00
3844;BME280;1937;51.444;6.484;2023-04-01T07:09:11;68801.69;;;9.73;100.00
3844;BME280;1937;51.444;6.484;2023-04-01T07:11:42;68982.47;;;9.59;100.00
3844;BME280;1937;51.444;6.484;2023-04-01T07:14:15;68857.47;;;9.68;100.00
3844;BME280;1937;51.444;6.484;2023-04-01T07:16:48;68830.00;;;9.54;100.00
3844;BME280;1937;51.444;6.484;2023-04-01T07:19:20;68873.09;;;9.79;100.00
3844;BME280;1937;51.444;6.484;2023-04-01T07:21:50;68792.59;;;9.61;100.00
3844;BME280;1937;51.444;6.484;2023-04-01T07:24:24;68807.25;;;9.63;100.00
3844;BME280;1937;51.444;6.484;2023-04-01T07:26:55;68793.00;;;9.57;100.00
3844;BME280;1937;51.444;6.484;2023-04-01T07:29:25;68954.38;;;9.63;100.00
3844;BME280;1937;51.444;6.484;2023-04-01T07:32:09;68895.88;;;9.83;100.00
3844;BME280;1937;51.444;6.484;2023-04-01T07:34:45;68752.66;;;9.62;100.00
3844;BME280;1937;51.444;6.484;2023-04-01T07:37:21;68931.63;;;9.59;100.00
3844;BME280;1937;51.444;6.484;2023-04-01T07:39:56;68855.09;;;9.66;100.00
3844;BME280;1937;51.444;6.484;2023-04-01T07:42:35;68921.56;;;9.90;100.00
3844;BME280;1937;51.444;6.484;2023-04-01T07:45:14;69013.97;;;9.85;100.00
3844;BME280;1937;51.444;6.484;2023-04-01T07:47:56;68895.06;;;9.85;100.00
3844;BME280;1937;51.444;6.484;2023-04-01T07:50:28;68881.59;;;9.78;100.00
3844;BME280;1937;51.444;6.484;2023-04-01T07:53:04;68937.59;;;9.71;100.00
3844;BME280;1937;51.444;6.484;2023-04-01T07:55:38;68988.69;;;9.95;100.00
3844;BME280;1937;51.444;6.484;2023-04-01T07:58:12;68922.97;;;9.82;100.00
3844;BME280;1937;51.444;6.484;2023-04-01T08:00:47;69047.84;;;10.08;100.00
3844;BME280;1937;51.444;6.484;2023-04-01T08:03:42;69023.91;;;10.09;100.00
3844;BME280;1937;51.444;6.484;2023-04-01T08:06:20;69042.06;;;9.88;100.00
3844;BME280;1937;51.444;6.484;2023-04-01T08:08:59;68916.06;;;9.94;100.00
3844;BME280;1937;51.444;6.484;2023-04-01T08:28:46;69046.88;;;10.11;100.00
3844;BME280;1937;51.444;6.484;2023-04-01T08:31:19;69078.81;;;10.27;100.00
3844;BME280;1937;51.444;6.484;2023-04-01T08:33:53;69061.59;;;10.33;100.00
3844;BME280;1937;51.444;6.484;2023-04-01T08:36:22;69059.22;;;10.31;100.00
3844;BME280;1937;51.444;6.484;2023-04-01T08:38:52;69028.75;;;10.33;100.00
3844;BME280;1937;51.444;6.484;2023-04-01T08:44:30;69049.31;;;10.33;100.00
3844;BME280;1937;51.444;6.484;2023-04-01T08:47:20;69077.84;;;10.38;100.00
3844;BME280;1937;51.444;6.484;2023-04-01T08:52:56;69158.09;;;10.53;100.00
3844;BME280;1937;51.444;6.484;2023-04-01T08:55:38;69189.25;;;10.71;100.00
3844;BME280;1937;51.444;6.484;2023-04-01T08:58:31;69121.06;;;10.57;100.00
3844;BME280;1937;51.444;6.484;2023-04-01T09:01:14;69257.66;;;10.90;100.00
3844;BME280;1937;51.444;6.484;2023-04-01T09:04:02;69141.72;;;10.77;100.00
3844;BME280;1937;51.444;6.484;2023-04-01T09:06:51;69167.09;;;10.87;100.00
3844;BME280;1937;51.444;6.484;2023-04-01T09:09:58;69110.19;;;10.70;100.00
3844;BME280;1937;51.444;6.484;2023-04-01T09:12:53;69117.16;;;10.78;100.00
3844;BME280;1937;51.444;6.484;2023-04-01T09:15:37;69189.31;;;10.97;100.00
3844;BME280;1937;51.444;6.484;2023-04-01T09:21:46;69008.19;;;10.59;100.00
3844;BME280;1937;51.444;6.484;2023-04-01T09:27:26;69108.47;;;10.94;100.00
3844;BME280;1937;51.444;6.484;2023-04-01T09:36:04;69010.75;;;10.59;100.00
3844;BME280;1937;51.444;6.484;2023-04-01T09:38:46;69178.81;;;10.93;100.00
3844;BME280;1937;51.444;6.484;2023-04-01T09:41:23;69161.94;;;10.87;100.00
3844;BME280;1937;51.444;6.484;2023-04-01T09:44:04;69064.63;;;10.68;100.00
3844;BME280;1937;51.444;6.484;2023-04-01T09:46:59;69142.31;;;10.77;100.00
3844;BME280;1937;51.444;6.484;2023-04-01T09:49:43;69155.78;;;10.78;100.00
3844;BME280;1937;51.444;6.484;2023-04-01T09:52:25;69111.00;;;10.75;100.00
3844;BME280;1937;51.444;6.484;2023-04-01T09:55:13;69113.75;;;10.73;100.00
3844;BME280;1937;51.444;6.484;2023-04-01T10:04:23;69147.44;;;10.71;100.00
3844;BME280;1937;51.444;6.484;2023-04-01T10:16:43;69238.03;;;10.80;100.00
3844;BME280;1937;51.444;6.484;2023-04-01T10:19:40;69226.94;;;10.81;100.00
3844;BME280;1937;51.444;6.484;2023-04-01T10:25:29;69173.81;;;10.71;100.00
3844;BME280;1937;51.444;6.484;2023-04-01T10:28:28;69178.38;;;10.77;100.00
3844;BME280;1937;51.444;6.484;2023-04-01T10:37:13;69202.97;;;10.83;100.00
3844;BME280;1937;51.444;6.484;2023-04-01T10:40:18;69198.19;;;10.79;100.00
3844;BME280;1937;51.444;6.484;2023-04-01T10:43:18;69230.34;;;10.93;100.00
3844;BME280;1937;51.444;6.484;2023-04-01T10:46:34;69216.25;;;10.92;100.00
3844;BME280;1937;51.444;6.484;2023-04-01T10:49:37;69199.59;;;10.84;100.00
3844;BME280;1937;51.444;6.484;2023-04-01T10:52:34;69186.13;;;10.84;100.00
3844;BME280;1937;51.444;6.484;2023-04-01T10:55:23;69238.69;;;11.00;100.00
3844;BME280;1937;51.444;6.484;2023-04-01T10:58:25;69222.25;;;11.03;100.00
3844;BME280;1937;51.444;6.484;2023-04-01T11:01:36;69226.78;;;11.03;100.00
3844;BME280;1937;51.444;6.484;2023-04-01T11:04:37;69246.22;;;11.02;100.00
3844;BME280;1937;51.444;6.484;2023-04-01T11:10:44;69244.44;;;11.00;100.00
3844;BME280;1937;51.444;6.484;2023-04-01T11:23:05;69226.97;;;10.94;100.00
3844;BME280;1937;51.444;6.484;2023-04-01T11:25:49;69227.75;;;10.93;100.00
3844;BME280;1937;51.444;6.484;2023-04-01T11:31:31;69201.75;;;10.75;100.00
3844;BME280;1937;51.444;6.484;2023-04-01T11:34:12;69212.47;;;10.78;100.00
3844;BME280;1937;51.444;6.484;2023-04-01T11:36:50;69187.66;;;10.67;100.00
3844;BME280;1937;51.444;6.484;2023-04-01T11:39:31;69255.44;;;10.79;100.00
3844;BME280;1937;51.444;6.484;2023-04-01T11:42:07;69267.41;;;10.89;100.00
3844;BME280;1937;51.444;6.484;2023-04-01T11:44:43;69305.91;;;11.04;100.00
3844;BME280;1937;51.444;6.484;2023-04-01T11:47:22;69218.25;;;10.91;100.00
3844;BME280;1937;51.444;6.484;2023-04-01T11:50:10;69230.16;;;10.95;100.00
3844;BME280;1937;51.444;6.484;2023-04-01T11:52:55;69317.38;;;10.99;100.00
3844;BME280;1937;51.444;6.484;2023-04-01T11:55:43;69337.44;;;11.05;100.00
3844;BME280;1937;51.444;6.484;2023-04-01T11:58:22;69436.31;;;11.30;100.00
3844;BME280;1937;51.444;6.484;2023-04-01T12:01:23;69285.94;;;11.18;100.00
3844;BME280;1937;51.444;6.484;2023-04-01T12:07:15;69348.06;;;11.36;100.00
3844;BME280;1937;51.444;6.484;2023-04-01T12:09:50;69411.97;;;11.42;100.00
3844;BME280;1937;51.444;6.484;2023-04-01T12:12:25;69381.38;;;11.38;100.00
3844;BME280;1937;51.444;6.484;2023-04-01T12:15:01;69329.41;;;11.29;100.00
3844;BME280;1937;51.444;6.484;2023-04-01T12:17:36;69417.56;;;11.51;100.00
3844;BME280;1937;51.444;6.484;2023-04-01T12:20:34;69424.28;;;11.48;100.00
3844;BME280;1937;51.444;6.484;2023-04-01T12:23:19;69550.50;;;11.85;100.00
3844;BME280;1937;51.444;6.484;2023-04-01T12:28:59;69305.00;;;11.28;100.00
3844;BME280;1937;51.444;6.484;2023-04-01T12:31:38;69259.13;;;11.08;100.00
3844;BME280;1937;51.444;6.484;2023-04-01T12:34:34;69277.75;;;11.09;100.00
3844;BME280;1937;51.444;6.484;2023-04-01T12:37:11;69304.16;;;11.16;100.00
3844;BME280;1937;51.444;6.484;2023-04-01T12:39:51;69323.00;;;11.15;100.00
3844;BME280;1937;51.444;6.484;2023-04-01T12:42:34;69342.47;;;11.27;100.00
3844;BME280;1937;51.444;6.484;2023-04-01T12:45:23;69256.19;;;11.13;100.00
3844;BME280;1937;51.444;6.484;2023-04-01T12:48:21;69331.56;;;11.26;100.00
3844;BME280;1937;51.444;6.484;2023-04-01T12:51:11;69293.84;;;11.16;100.00
3844;BME280;1937;51.444;6.484;2023-04-01T12:54:07;69312.34;;;11.32;100.00
3844;BME280;1937;51.444;6.484;2023-04-01T12:56:45;69205.59;;;11.02;100.00
3844;BME280;1937;51.444;6.484;2023-04-01T12:59:31;69268.28;;;11.21;100.00
3844;BME280;1937;51.444;6.484;2023-04-01T13:02:13;69293.25;;;11.16;100.00
3844;BME280;1937;51.444;6.484;2023-04-01T13:05:00;69242.84;;;11.03;100.00
3844;BME280;1937;51.444;6.484;2023-04-01T13:10:32;69333.69;;;11.11;100.00
3844;BME280;1937;51.444;6.484;2023-04-01T13:13:23;69344.28;;;11.28;100.00
3844;BME280;1937;51.444;6.484;2023-04-01T13:15:58;69306.22;;;11.35;100.00
3844;BME280;1937;51.444;6.484;2023-04-01T13:18:35;69229.94;;;10.97;100.00
3844;BME280;1937;51.444;6.484;2023-04-01T13:21:13;69252.97;;;10.99;100.00
3844;BME280;1937;51.444;6.484;2023-04-01T13:23:52;69326.94;;;11.14;100.00
3844;BME280;1937;51.444;6.484;2023-04-01T13:26:27;69431.16;;;11.30;100.00
3844;BME280;1937;51.444;6.484;2023-04-01T13:28:59;69385.31;;;11.24;100.00
3844;BME280;1937;51.444;6.484;2023-04-01T13:31:40;69344.56;;;11.04;100.00
3844;BME280;1937;51.444;6.484;2023-04-01T13:34:30;69352.34;;;11.18;100.00
3844;BME280;1937;51.444;6.484;2023-04-01T13:37:15;69314.22;;;11.05;100.00
3844;BME280;1937;51.444;6.484;2023-04-01T13:39:57;69351.56;;;11.19;100.00
3844;BME280;1937;51.444;6.484;2023-04-01T13:42:29;69345.19;;;11.12;100.00
3844;BME280;1937;51.444;6.484;2023-04-01T13:45:01;69394.38;;;11.16;100.00
3844;BME280;1937;51.444;6.484;2023-04-01T13:47:41;69352.16;;;11.13;100.00
3844;BME280;1937;51.444;6.484;2023-04-01T13:50:34;69346.38;;;11.13;100.00
3844;BME280;1937;51.444;6.484;2023-04-01T13:53:32;69415.44;;;11.25;100.00
3844;BME280;1937;51.444;6.484;2023-04-01T13:56:18;69457.09;;;11.28;100.00
3844;BME280;1937;51.444;6.484;2023-04-01T13:58:58;69332.25;;;10.98;100.00
3844;BME280;1937;51.444;6.484;2023-04-01T14:01:35;69308.28;;;11.06;100.00
3844;BME280;1937;51.444;6.484;2023-04-01T14:04:27;69327.06;;;10.92;100.00
3844;BME280;1937;51.444;6.484;2023-04-01T14:07:08;69323.72;;;11.00;100.00
3844;BME280;1937;51.444;6.484;2023-04-01T14:09:56;69369.34;;;11.01;100.00
3844;BME280;1937;51.444;6.484;2023-04-01T14:12:30;69353.28;;;11.07;100.00
3844;BME280;1937;51.444;6.484;2023-04-01T14:15:10;69371.91;;;11.01;100.00
3844;BME280;1937;51.444;6.484;2023-04-01T14:17:54;69386.59;;;11.09;100.00
3844;BME280;1937;51.444;6.484;2023-04-01T14:20:31;69356.84;;;11.04;100.00
3844;BME280;1937;51.444;6.484;2023-04-01T14:23:29;69368.94;;;11.05;100.00
3844;BME280;1937;51.444;6.484;2023-04-01T14:26:23;69359.47;;;11.11;100.00
3844;BME280;1937;51.444;6.484;2023-04-01T14:29:06;69408.44;;;11.11;100.00
3844;BME280;1937;51.444;6.484;2023-04-01T14:31:44;69436.47;;;11.28;100.00
3844;BME280;1937;51.444;6.484;2023-04-01T14:34:23;69392.03;;;11.21;100.00
3844;BME280;1937;51.444;6.484;2023-04-01T14:37:04;69387.06;;;11.25;100.00
3844;BME280;1937;51.444;6.484;2023-04-01T14:39:59;69357.50;;;11.18;100.00
3844;BME280;1937;51.444;6.484;2023-04-01T14:42:41;69384.69;;;11.23;100.00
3844;BME280;1937;51.444;6.484;2023-04-01T14:48:21;69344.78;;;11.09;100.00
3844;BME280;1937;51.444;6.484;2023-04-01T14:50:52;69361.00;;;11.07;100.00
3844;BME280;1937;51.444;6.484;2023-04-01T14:53:26;69314.78;;;10.92;100.00
3844;BME280;1937;51.444;6.484;2023-04-01T14:55:56;69398.06;;;11.04;100.00
3844;BME280;1937;51.444;6.484;2023-04-01T14:58:24;69346.53;;;11.04;100.00
3844;BME280;1937;51.444;6.484;2023-04-01T15:01:00;69346.16;;;11.01;100.00
3844;BME280;1937;51.444;6.484;2023-04-01T15:03:37;69387.03;;;11.12;100.00
3844;BME280;1937;51.444;6.484;2023-04-01T15:06:27;69337.41;;;10.98;100.00
3844;BME280;1937;51.444;6.484;2023-04-01T15:09:01;69335.81;;;10.95;100.00
3844;BME280;1937;51.444;6.484;2023-04-01T15:11:43;69409.97;;;11.01;100.00
3844;BME280;1937;51.444;6.484;2023-04-01T15:14:28;69461.81;;;11.19;100.00
3844;BME280;1937;51.444;6.484;2023-04-01T15:17:16;69466.22;;;11.27;100.00
3844;BME280;1937;51.444;6.484;2023-04-01T15:20:00;69416.00;;;11.19;100.00
3844;BME280;1937;51.444;6.484;2023-04-01T15:22:50;69428.38;;;11.32;100.00
3844;BME280;1937;51.444;6.484;2023-04-01T15:25:39;69384.63;;;11.10;100.00
3844;BME280;1937;51.444;6.484;2023-04-01T15:28:21;69431.63;;;11.11;100.00
3844;BME280;1937;51.444;6.484;2023-04-01T15:30:56;69390.59;;;11.15;100.00
3844;BME280;1937;51.444;6.484;2023-04-01T15:33:36;69451.09;;;11.16;100.00